Aspen, CO (81611)

10:51 PM MDT on September 01, 2014 (GMT -0600)
Tiehack Aspen Colorado | Change Station
CLOSE
Current Station
Personal Weather Station
Location: Aspen, CO
Elevation: 8500 ft
Nearby Weather Stations

Elev 8500 ft 39.20 °N, 106.85 °W | Updated 19 seconds ago

Clear
Clear
48.0 °F
Feels Like 46 °F
N
5.0
Wind Variable Wind from South
Gusts 6.0 mph

Today
High -- | Low -- °F
--% Chance of Precip.
Yesterday
High -- | Low -- °F
Precip. -- in
6:35 AM 7:37 PM
Waxing Crescent, 47% visible
Pressure 29.97 in
Visibility 10.0 miles
Clouds Clear
Windchill 46 °F
Dew Point 36 °F
Humidity 62%
Rainfall 0.00 in
Snow Depth 188 in , 0 in , 0 in
UV 0 out of 12
Pollen 9.60 out of 12
Air Quality Not available.
Flu Activity Not available.
METAR KASE 020353Z AUTO 20007KT 10SM CLR 12/02 A3028 RMK AO2 SLP149 T01220017

More Conditions Fewer Conditions

Pressure 29.97 in
Visibility 10.0 miles
Clouds Clear
Windchill 46 °F
Dew Point 36 °F
Humidity 62%
Rainfall 0.00 in
Snow Depth 188 in , 0 in , 0 in
UV 0 out of 12
Pollen 9.60 out of 12
Air Quality Not available.
Flu Activity Not available.
METAR KASE 020353Z AUTO 20007KT 10SM CLR 12/02 A3028 RMK AO2 SLP149 T01220017

More Conditions Fewer Conditions

10-Day Weather Forecast

Almanac

Astronomy

Sep. 01, 2014 Rise Set
Actual Time 6:35 AM MDT 7:37 PM MDT
Civil Twilight 6:08 AM MDT 8:05 PM MDT
Nautical Twilight 5:35 AM MDT 8:37 PM MDT
Astronomical Twilight 5:01 AM MDT 9:11 PM MDT
Moon 1:21 PM MDT (9/1) 11:44 PM MDT (9/1)
Length of Visible Light 13h 56m
Length of Day
13h 01m
Tomorrow will be 2m 28s shorter.
Waxing Crescent, 47% of the Moon is Illuminated
Sep 2
Waxing Crescent
Sep 2
First Quarter
Sep 8
Full
Sep 15
Last Quarter
Sep 24
New

Yesterday's Extremes

State Highs State Lows

Community

WunderPhotos

Upload Photos

1,749,573 photos uploaded!

WunderBlogs® & News

Nearby

Snow Depth

Station Depth Elevation
Independence Pass 188 in 10600 ft
Kiln 0 in 9600 ft
Nast Lake 0 in 8700 ft
Ivanhoe 0 in 10400 ft
Schofield Pass 0 in 10700 ft

Earthquake Activity

City Distance Mag. Time & Date
No recent earthquake activity has been reported nearby.
Minimum magnitude displayed is 2.5.

Coastal Water Temperatures

Place Temperature
No Stations Reporting

Nearby Weather Stations